Terminal Aerodrome Forecast
Issued by NWS Newport/Morehead City, NC

Home | Current Version | Previous Version | Graphics & Text | Print | Product List | Glossary On
Versions: 1 2 3 4 5 6 7 8 9 10 11 12 13 14 15 16 17 18 19 20 21 22 23 24
000
FTUS42 KMHX 261100
TAFEWN
TAF
KEWN 261121Z 2612/2712 00000KT 1/4SM FG VV001
      TEMPO 2612/2613 1/2SM FG VV002
     FM261300 VRB03KT P6SM SCT250
     FM270600 00000KT 4SM BR SCT250=

USA.gov is the U.S. government's official web portal to all federal, state and local government web resources and services.